createdAt,value
2019-03-09T00:01:00.012Z,1003.07
2019-03-09T00:01:59.915Z,1003.06
2019-03-09T00:03:00.032Z,1002.97
2019-03-09T00:03:59.909Z,1002.98
2019-03-09T00:04:59.935Z,1002.98
2019-03-09T00:05:59.894Z,1002.94
2019-03-09T00:06:59.952Z,1002.87
2019-03-09T00:07:59.842Z,1002.85
2019-03-09T00:08:59.887Z,1002.84
2019-03-09T00:09:59.820Z,1002.74
2019-03-09T00:10:59.909Z,1002.72
2019-03-09T00:11:59.801Z,1002.71
2019-03-09T00:12:59.905Z,1002.60
2019-03-09T00:13:59.777Z,1002.58
2019-03-09T00:14:59.831Z,1002.55
2019-03-09T00:15:59.777Z,1002.55
2019-03-09T00:16:59.816Z,1002.58
2019-03-09T00:17:59.740Z,1002.58
2019-03-09T00:18:59.858Z,1002.60
2019-03-09T00:19:59.706Z,1002.51
2019-03-09T00:20:59.738Z,1002.52
2019-03-09T00:21:59.688Z,1002.58
2019-03-09T00:22:59.778Z,1002.54
2019-03-09T00:23:59.691Z,1002.55
2019-03-09T00:24:59.789Z,1002.48
2019-03-09T00:25:59.654Z,1002.45
2019-03-09T00:26:59.784Z,1002.44
2019-03-09T00:27:59.622Z,1002.38
2019-03-09T00:28:59.725Z,1002.39
2019-03-09T00:29:59.602Z,1002.37
2019-03-09T00:30:59.705Z,1002.37
2019-03-09T00:31:59.628Z,1002.36
2019-03-09T00:32:59.630Z,1002.33
2019-03-09T00:33:59.558Z,1002.25
2019-03-09T00:34:59.655Z,1002.25
2019-03-09T00:35:59.534Z,1002.24
2019-03-09T00:36:59.673Z,1002.20
2019-03-09T00:37:59.515Z,1002.24
2019-03-09T00:38:59.555Z,1002.20
2019-03-09T00:39:59.491Z,1002.18
2019-03-09T00:40:59.580Z,1002.20
2019-03-09T00:41:59.506Z,1002.10
2019-03-09T00:42:59.583Z,1002.21
2019-03-09T00:43:59.459Z,1002.15
2019-03-09T00:44:59.535Z,1002.09
2019-03-09T00:45:59.431Z,1002.10
2019-03-09T00:46:59.529Z,1002.05
2019-03-09T00:47:59.409Z,1002.08
2019-03-09T00:48:59.425Z,1002.12
2019-03-09T00:49:59.420Z,1002.05
2019-03-09T00:50:59.428Z,1002.10
2019-03-09T00:51:59.410Z,1001.98
2019-03-09T00:52:59.493Z,1002.05
2019-03-09T00:53:59.339Z,1001.94
2019-03-09T00:54:59.393Z,1001.99
2019-03-09T00:55:59.329Z,1002.04
2019-03-09T00:56:59.371Z,1002.01
2019-03-09T00:57:59.327Z,1001.94
2019-03-09T00:58:59.417Z,1001.94
2019-03-09T00:59:59.274Z,1001.91
2019-03-09T01:00:59.404Z,1001.94
2019-03-09T01:01:59.270Z,1001.81
2019-03-09T01:02:59.321Z,1001.87
2019-03-09T01:03:59.287Z,1001.91
2019-03-09T01:04:59.345Z,1001.84
2019-03-09T01:05:59.230Z,1001.84
2019-03-09T01:06:59.262Z,1001.88
2019-03-09T01:07:59.224Z,1001.82
2019-03-09T01:08:59.270Z,1001.79
2019-03-09T01:09:59.168Z,1001.73
2019-03-09T01:10:59.515Z,1001.73
2019-03-09T01:11:59.146Z,1001.76
2019-03-09T01:12:59.222Z,1001.67
2019-03-09T01:13:59.118Z,1001.76
2019-03-09T01:14:59.194Z,1001.61
2019-03-09T01:15:59.161Z,1001.67
2019-03-09T01:16:59.204Z,1001.62
2019-03-09T01:17:59.110Z,1001.69
2019-03-09T01:18:59.115Z,1001.53
2019-03-09T01:19:59.082Z,1001.63
2019-03-09T01:20:59.448Z,1001.54
2019-03-09T01:21:59.073Z,1001.54
2019-03-09T01:22:59.079Z,1001.53
2019-03-09T01:23:59.013Z,1001.59
2019-03-09T01:24:59.057Z,1001.56
2019-03-09T01:25:58.987Z,1001.43
2019-03-09T01:26:59.070Z,1001.49
2019-03-09T01:27:59.008Z,1001.54
2019-03-09T01:28:58.992Z,1001.50
2019-03-09T01:29:58.989Z,1001.48
2019-03-09T01:30:59.002Z,1001.49
2019-03-09T01:31:58.942Z,1001.39
2019-03-09T01:32:59.039Z,1001.29
2019-03-09T01:33:58.902Z,1001.36
2019-03-09T01:34:59.060Z,1001.32
2019-03-09T01:35:58.878Z,1001.35
2019-03-09T01:36:59.073Z,1001.34
2019-03-09T01:37:58.852Z,1001.21
2019-03-09T01:38:58.982Z,1001.24
2019-03-09T01:39:58.852Z,1001.27
2019-03-09T01:40:58.904Z,1001.20
2019-03-09T01:41:58.847Z,1001.19
2019-03-09T01:42:58.894Z,1001.20
2019-03-09T01:43:58.843Z,1001.26
2019-03-09T01:44:58.884Z,1001.18
2019-03-09T01:45:58.769Z,1001.12
2019-03-09T01:46:58.950Z,1001.18
2019-03-09T01:47:58.751Z,1001.13
2019-03-09T01:48:58.822Z,1001.05
2019-03-09T01:49:58.727Z,1001.05
2019-03-09T01:50:58.833Z,1000.98
2019-03-09T01:51:58.714Z,1001.01
2019-03-09T01:52:58.767Z,1000.97
2019-03-09T01:53:58.694Z,1000.93
2019-03-09T01:54:58.764Z,1000.96
2019-03-09T01:55:58.670Z,1000.83
2019-03-09T01:56:58.769Z,1000.90
2019-03-09T01:57:58.681Z,1001.03
2019-03-09T01:58:58.686Z,1000.93
2019-03-09T01:59:58.616Z,1000.91
2019-03-09T02:00:58.725Z,1000.86
2019-03-09T02:01:58.586Z,1000.88
2019-03-09T02:02:58.704Z,1000.80
2019-03-09T02:03:58.645Z,1000.93
2019-03-09T02:04:58.620Z,1000.80
2019-03-09T02:05:58.558Z,1000.72
2019-03-09T02:06:58.631Z,1000.72
2019-03-09T02:07:58.522Z,1000.69
2019-03-09T02:08:58.575Z,1000.73
2019-03-09T02:09:58.503Z,1000.47
2019-03-09T02:10:58.597Z,1000.50
2019-03-09T02:11:58.487Z,1000.44
2019-03-09T02:12:58.589Z,1000.49
2019-03-09T02:13:58.510Z,1000.48
2019-03-09T02:14:58.477Z,1000.43
2019-03-09T02:15:58.441Z,1000.47
2019-03-09T02:16:58.487Z,1000.50
2019-03-09T02:17:58.439Z,1000.47
2019-03-09T02:18:58.508Z,1000.46
2019-03-09T02:19:58.438Z,1000.43
2019-03-09T02:20:58.428Z,1000.37
2019-03-09T02:21:58.400Z,1000.39
2019-03-09T02:22:58.441Z,1000.32
2019-03-09T02:23:58.391Z,1000.30
2019-03-09T02:24:58.449Z,1000.25
2019-03-09T02:25:58.343Z,1000.26
2019-03-09T02:26:58.382Z,1000.25
2019-03-09T02:27:58.304Z,1000.25
2019-03-09T02:28:58.412Z,1000.21
2019-03-09T02:29:58.322Z,1000.26
2019-03-09T02:30:58.395Z,1000.17
2019-03-09T02:31:58.316Z,1000.14
2019-03-09T02:32:58.358Z,1000.09
2019-03-09T02:33:58.279Z,1000.19
2019-03-09T02:34:58.362Z,1000.15
2019-03-09T02:35:58.230Z,1000.09
2019-03-09T02:36:58.352Z,1000.11
2019-03-09T02:37:58.217Z,1000.01
2019-03-09T02:38:58.284Z,1000.07
2019-03-09T02:39:58.212Z,1000.38
2019-03-09T02:40:58.270Z,1000.06
2019-03-09T02:41:58.157Z,1000.02
2019-03-09T02:42:58.191Z,1000.00
2019-03-09T02:43:58.151Z,999.99
2019-03-09T02:44:58.210Z,1000.00
2019-03-09T02:45:58.128Z,1000.00
2019-03-09T02:46:58.191Z,1000.09
2019-03-09T02:47:58.114Z,1000.11
2019-03-09T02:48:58.137Z,1000.12
2019-03-09T02:49:58.637Z,1000.03
2019-03-09T02:50:58.132Z,1000.15
2019-03-09T02:51:58.049Z,999.98
2019-03-09T02:52:58.182Z,1000.01
2019-03-09T02:53:58.032Z,1000.04
2019-03-09T02:54:58.084Z,999.88
2019-03-09T02:55:58.037Z,999.96
2019-03-09T02:56:58.061Z,999.96
2019-03-09T02:57:57.975Z,1000.07
2019-03-09T02:58:58.090Z,1000.08
2019-03-09T02:59:57.982Z,999.99
2019-03-09T03:00:58.044Z,999.98
2019-03-09T03:01:57.933Z,999.94
2019-03-09T03:02:58.006Z,999.88
2019-03-09T03:03:57.905Z,999.84
2019-03-09T03:04:58.045Z,999.75
2019-03-09T03:05:57.923Z,999.90
2019-03-09T03:06:57.920Z,999.89
2019-03-09T03:07:57.875Z,999.91
2019-03-09T03:08:57.927Z,999.94
2019-03-09T03:09:57.839Z,999.97
2019-03-09T03:10:57.975Z,999.95
2019-03-09T03:11:57.825Z,999.89
2019-03-09T03:12:57.894Z,999.87
2019-03-09T03:13:57.796Z,999.88
2019-03-09T03:14:57.909Z,999.89
2019-03-09T03:15:57.794Z,999.93
2019-03-09T03:16:57.899Z,999.80
2019-03-09T03:17:57.771Z,999.80
2019-03-09T03:18:57.802Z,999.84
2019-03-09T03:19:57.729Z,999.92
2019-03-09T03:20:57.849Z,999.86
2019-03-09T03:21:57.757Z,999.84
2019-03-09T03:22:57.849Z,999.89
2019-03-09T03:23:57.698Z,999.88
2019-03-09T03:24:57.752Z,999.78
2019-03-09T03:25:57.699Z,999.95
2019-03-09T03:26:57.797Z,999.80
2019-03-09T03:27:57.741Z,999.85
2019-03-09T03:28:57.664Z,999.81
2019-03-09T03:29:57.619Z,999.86
2019-03-09T03:30:57.830Z,999.89
2019-03-09T03:31:57.601Z,999.85
2019-03-09T03:32:57.727Z,999.75
2019-03-09T03:33:57.575Z,999.85
2019-03-09T03:34:57.606Z,999.91
2019-03-09T03:35:57.589Z,999.81
2019-03-09T03:36:57.615Z,999.85
2019-03-09T03:37:57.547Z,999.81
2019-03-09T03:38:57.659Z,999.79
2019-03-09T03:39:57.517Z,999.87
2019-03-09T03:40:57.673Z,999.80
2019-03-09T03:41:57.520Z,999.82
2019-03-09T03:42:57.561Z,999.74
2019-03-09T03:43:57.462Z,999.76
2019-03-09T03:44:57.575Z,999.73
2019-03-09T03:45:57.442Z,999.75
2019-03-09T03:46:57.611Z,999.89
2019-03-09T03:47:57.443Z,999.75
2019-03-09T03:48:57.509Z,999.74
2019-03-09T03:49:57.396Z,999.75
2019-03-09T03:50:57.543Z,999.78
2019-03-09T03:51:57.404Z,999.70
2019-03-09T03:52:57.421Z,999.70
2019-03-09T03:53:57.356Z,999.68
2019-03-09T03:54:57.448Z,999.74
2019-03-09T03:55:57.331Z,999.56
2019-03-09T03:56:57.536Z,999.60
2019-03-09T03:57:57.308Z,999.73
2019-03-09T03:58:57.365Z,999.73
2019-03-09T03:59:57.292Z,999.71
2019-03-09T04:00:57.387Z,999.68
2019-03-09T04:01:57.309Z,999.72
2019-03-09T04:02:57.301Z,999.72
2019-03-09T04:03:57.274Z,999.73
2019-03-09T04:04:57.300Z,999.77
2019-03-09T04:05:57.237Z,999.80
2019-03-09T04:06:57.345Z,999.90
2019-03-09T04:07:57.216Z,999.83
2019-03-09T04:08:57.259Z,999.75
2019-03-09T04:09:57.172Z,999.76
2019-03-09T04:10:57.256Z,999.78
2019-03-09T04:11:57.232Z,999.81
2019-03-09T04:12:57.275Z,999.71
2019-03-09T04:13:57.135Z,999.89
2019-03-09T04:14:57.164Z,999.86
2019-03-09T04:15:57.127Z,999.87
2019-03-09T04:16:57.212Z,999.81
2019-03-09T04:17:57.093Z,999.88
2019-03-09T04:18:57.198Z,999.88
2019-03-09T04:19:57.079Z,999.92
2019-03-09T04:20:57.115Z,1000.00
2019-03-09T04:21:57.072Z,1000.04
2019-03-09T04:22:57.170Z,1000.13
2019-03-09T04:23:57.028Z,1000.03
2019-03-09T04:24:57.138Z,1000.08
2019-03-09T04:25:57.001Z,1000.15
2019-03-09T04:26:57.048Z,1000.04
2019-03-09T04:27:57.017Z,1000.11
2019-03-09T04:28:57.079Z,1000.12
2019-03-09T04:29:56.959Z,1000.20
2019-03-09T04:30:57.073Z,1000.29
2019-03-09T04:31:56.946Z,1000.23
2019-03-09T04:32:57.007Z,1000.22
2019-03-09T04:33:56.914Z,1000.20
2019-03-09T04:34:56.997Z,1000.17
2019-03-09T04:35:56.892Z,1000.18
2019-03-09T04:36:56.916Z,1000.32
2019-03-09T04:37:56.922Z,1000.36
2019-03-09T04:38:56.923Z,1000.35
2019-03-09T04:39:56.864Z,1000.36
2019-03-09T04:40:56.972Z,1000.40
2019-03-09T04:41:56.832Z,1000.37
2019-03-09T04:42:56.879Z,1000.44
2019-03-09T04:43:56.813Z,1000.45
2019-03-09T04:44:57.324Z,1000.36
2019-03-09T04:45:56.791Z,1000.44
2019-03-09T04:46:56.875Z,1000.61
2019-03-09T04:47:56.898Z,1000.47
2019-03-09T04:48:56.788Z,1000.52
2019-03-09T04:49:56.747Z,1000.54
2019-03-09T04:50:56.805Z,1000.56
2019-03-09T04:51:56.723Z,1000.46
2019-03-09T04:52:56.848Z,1000.44
2019-03-09T04:53:56.751Z,1000.49
2019-03-09T04:54:56.727Z,1000.42
2019-03-09T04:55:56.677Z,1000.50
2019-03-09T04:56:56.740Z,1000.50
2019-03-09T04:57:56.665Z,1000.45
2019-03-09T04:58:56.781Z,1000.48
2019-03-09T04:59:56.671Z,1000.47
2019-03-09T05:00:56.666Z,1000.49
2019-03-09T05:01:56.615Z,1000.49
2019-03-09T05:02:56.694Z,1000.52
2019-03-09T05:03:56.610Z,1000.59
2019-03-09T05:04:58.837Z,1000.54
2019-03-09T05:05:56.582Z,1000.66
2019-03-09T05:06:56.615Z,1000.70
2019-03-09T05:07:56.544Z,1000.69
2019-03-09T05:08:56.653Z,1000.74
2019-03-09T05:09:56.594Z,1000.82
2019-03-09T05:10:56.634Z,1000.80
2019-03-09T05:11:56.537Z,1000.85
2019-03-09T05:12:57.738Z,1000.99
2019-03-09T05:13:56.473Z,1001.10
2019-03-09T05:14:56.592Z,1001.06
2019-03-09T05:15:56.484Z,1001.07
2019-03-09T05:16:56.578Z,1001.07
2019-03-09T05:17:56.440Z,1001.16
2019-03-09T05:18:56.515Z,1001.19
2019-03-09T05:19:56.422Z,1001.17
2019-03-09T05:20:56.509Z,1001.08
2019-03-09T05:21:56.428Z,1001.17
2019-03-09T05:22:56.412Z,1001.12
2019-03-09T05:23:56.392Z,1001.11
2019-03-09T05:24:56.445Z,1001.23
2019-03-09T05:25:56.374Z,1001.24
2019-03-09T05:26:56.440Z,1001.23
2019-03-09T05:27:56.370Z,1001.26
2019-03-09T05:28:56.370Z,1001.24
2019-03-09T05:29:56.348Z,1001.25
2019-03-09T05:30:56.366Z,1001.19
2019-03-09T05:31:56.282Z,1001.23
2019-03-09T05:32:56.378Z,1001.15
2019-03-09T05:33:56.271Z,1001.20
2019-03-09T05:34:56.339Z,1001.20
2019-03-09T05:35:56.278Z,1001.20
2019-03-09T05:36:56.317Z,1001.18
2019-03-09T05:37:56.238Z,1001.21
2019-03-09T05:38:56.333Z,1001.14
2019-03-09T05:39:56.260Z,1001.17
2019-03-09T05:40:56.227Z,1001.17
2019-03-09T05:41:56.206Z,1001.19
2019-03-09T05:43:57.269Z,1001.20
2019-03-09T05:44:56.256Z,1001.28
2019-03-09T05:45:56.156Z,1001.31
2019-03-09T05:46:56.165Z,1001.25
2019-03-09T05:47:56.110Z,1001.18
2019-03-09T05:48:56.181Z,1001.16
2019-03-09T05:49:56.086Z,1001.20
2019-03-09T05:50:56.219Z,1001.24
2019-03-09T05:51:56.080Z,1001.22
2019-03-09T05:52:56.109Z,1001.22
2019-03-09T05:53:56.048Z,1001.33
2019-03-09T05:54:56.156Z,1001.23
2019-03-09T05:55:56.099Z,1001.18
2019-03-09T05:56:56.134Z,1001.23
2019-03-09T05:57:56.009Z,1001.25
2019-03-09T05:58:56.043Z,1001.17
2019-03-09T05:59:56.006Z,1001.25
2019-03-09T06:00:56.095Z,1001.24
2019-03-09T06:01:56.020Z,1001.26
2019-03-09T06:02:56.071Z,1001.29
2019-03-09T06:03:55.958Z,1001.22
2019-03-09T06:04:55.986Z,1001.22
2019-03-09T06:05:55.963Z,1001.21
2019-03-09T06:06:55.997Z,1001.36
2019-03-09T06:07:55.933Z,1001.52
2019-03-09T06:08:55.910Z,1001.61
2019-03-09T06:09:55.877Z,1001.55
2019-03-09T06:10:55.924Z,1001.54
2019-03-09T06:11:55.939Z,1001.63
2019-03-09T06:12:55.940Z,1001.56
2019-03-09T06:13:55.883Z,1001.55
2019-03-09T06:14:56.088Z,1001.68
2019-03-09T06:15:55.811Z,1001.57
2019-03-09T06:16:56.200Z,1001.62
2019-03-09T06:17:55.792Z,1001.64
2019-03-09T06:18:56.311Z,1001.71
2019-03-09T06:19:55.778Z,1001.75
2019-03-09T06:21:56.899Z,1001.58
2019-03-09T06:23:56.892Z,1001.50
2019-03-09T06:25:56.823Z,1001.50
2019-03-09T06:26:56.788Z,1001.51
2019-03-09T06:27:55.671Z,1001.53
2019-03-09T06:29:56.789Z,1001.52
2019-03-09T06:31:56.772Z,1001.59
2019-03-09T06:32:57.043Z,1001.65
2019-03-09T06:33:55.606Z,1001.72
2019-03-09T06:35:56.768Z,1001.70
2019-03-09T06:36:58.320Z,1001.84
2019-03-09T06:37:55.901Z,1001.89
2019-03-09T06:38:57.454Z,1001.89
2019-03-09T06:39:55.545Z,1001.95
2019-03-09T06:41:02.956Z,1001.98
2019-03-09T06:41:56.543Z,1001.94
2019-03-09T06:42:57.818Z,1001.95
2019-03-09T06:43:55.564Z,1002.03
2019-03-09T06:44:58.011Z,1002.01
2019-03-09T06:45:55.522Z,1002.12
2019-03-09T06:46:57.933Z,1002.17
2019-03-09T06:47:55.519Z,1002.29
2019-03-09T06:48:58.048Z,1002.25
2019-03-09T06:49:55.500Z,1002.29
2019-03-09T06:50:58.176Z,1002.25
2019-03-09T06:51:55.410Z,1002.29
2019-03-09T06:52:58.322Z,1002.22
2019-03-09T06:53:55.402Z,1002.15
2019-03-09T06:54:58.420Z,1002.19
2019-03-09T06:55:55.369Z,1002.18
2019-03-09T06:57:56.549Z,1002.21
2019-03-09T06:59:56.565Z,1002.13
2019-03-09T07:01:56.447Z,1002.14
2019-03-09T07:03:56.551Z,1002.12
2019-03-09T07:05:56.622Z,1002.03
2019-03-09T07:06:58.974Z,1002.11
2019-03-09T07:07:55.237Z,1002.20
2019-03-09T07:08:59.135Z,1002.13
2019-03-09T07:09:55.249Z,1002.18
2019-03-09T07:11:55.217Z,1002.27
2019-03-09T07:13:55.227Z,1002.27
2019-03-09T07:14:58.358Z,1002.28
2019-03-09T07:15:55.150Z,1002.29
2019-03-09T07:16:57.204Z,1002.24
2019-03-09T07:17:55.138Z,1002.26
2019-03-09T07:19:56.272Z,1002.30
2019-03-09T07:20:55.491Z,1002.37
2019-03-09T07:21:55.089Z,1002.28
2019-03-09T07:22:55.211Z,1002.25
2019-03-09T07:23:55.072Z,1002.26
2019-03-09T07:24:55.141Z,1002.39
2019-03-09T07:25:55.047Z,1002.34
2019-03-09T07:26:55.122Z,1002.36
2019-03-09T07:27:55.012Z,1002.51
2019-03-09T07:28:55.037Z,1002.51
2019-03-09T07:29:55.033Z,1002.47
2019-03-09T07:30:55.053Z,1002.48
2019-03-09T07:31:54.976Z,1002.43
2019-03-09T07:32:55.077Z,1002.41
2019-03-09T07:33:54.947Z,1002.36
2019-03-09T07:34:55.002Z,1002.38
2019-03-09T07:35:54.963Z,1002.38
2019-03-09T07:36:55.013Z,1002.53
2019-03-09T07:37:54.985Z,1002.66
2019-03-09T07:38:55.014Z,1002.94
2019-03-09T07:39:54.881Z,1002.78
2019-03-09T07:40:54.946Z,1002.79
2019-03-09T07:41:54.864Z,1002.94
2019-03-09T07:42:54.927Z,1002.93
2019-03-09T07:43:54.935Z,1002.81
2019-03-09T07:44:54.937Z,1002.80
2019-03-09T07:45:54.864Z,1002.82
2019-03-09T07:46:54.968Z,1002.84
2019-03-09T07:47:54.796Z,1002.80
2019-03-09T07:48:54.863Z,1002.71
2019-03-09T07:49:54.770Z,1002.75
2019-03-09T07:50:54.917Z,1002.92
2019-03-09T07:51:54.768Z,1002.95
2019-03-09T07:52:54.799Z,1002.97
2019-03-09T07:53:54.793Z,1002.97
2019-03-09T07:54:54.826Z,1002.92
2019-03-09T07:55:54.730Z,1003.01
2019-03-09T07:56:54.822Z,1002.98
2019-03-09T07:57:54.693Z,1003.11
2019-03-09T07:58:54.742Z,1003.10
2019-03-09T07:59:54.673Z,1003.20
2019-03-09T08:00:54.814Z,1003.06
2019-03-09T08:01:54.648Z,1003.09
2019-03-09T08:02:54.673Z,1003.05
2019-03-09T08:03:54.610Z,1003.00
2019-03-09T08:04:54.691Z,1002.90
2019-03-09T08:05:54.628Z,1002.95
2019-03-09T08:06:54.681Z,1002.96
2019-03-09T08:07:54.574Z,1003.02
2019-03-09T08:08:54.607Z,1003.12
2019-03-09T08:09:54.548Z,1003.19
2019-03-09T08:10:54.615Z,1003.22
2019-03-09T08:11:54.558Z,1003.28
2019-03-09T08:12:54.631Z,1003.36
2019-03-09T08:13:54.507Z,1003.29
2019-03-09T08:14:54.530Z,1003.28
2019-03-09T08:15:54.625Z,1003.24
2019-03-09T08:16:54.602Z,1003.15
2019-03-09T08:17:55.904Z,1003.02
2019-03-09T08:18:54.568Z,1003.10
2019-03-09T08:19:54.447Z,1003.00
2019-03-09T08:20:54.475Z,1002.95
2019-03-09T08:21:54.463Z,1003.03
2019-03-09T08:22:54.898Z,1002.92
2019-03-09T08:23:56.460Z,1003.01
2019-03-09T08:24:54.505Z,1003.04
2019-03-09T08:25:54.399Z,1003.03
2019-03-09T08:26:54.468Z,1003.18
2019-03-09T08:27:54.358Z,1003.10
2019-03-09T08:28:54.473Z,1003.01
2019-03-09T08:29:54.333Z,1003.09
2019-03-09T08:30:54.393Z,1003.09
2019-03-09T08:31:54.342Z,1003.11
2019-03-09T08:32:54.376Z,1003.01
2019-03-09T08:33:54.283Z,1003.05
2019-03-09T08:34:54.388Z,1003.05
2019-03-09T08:35:54.254Z,1002.89
2019-03-09T08:36:55.357Z,1002.94
2019-03-09T08:37:54.234Z,1002.96
2019-03-09T08:38:54.343Z,1002.95
2019-03-09T08:39:54.242Z,1002.93
2019-03-09T08:40:54.367Z,1002.85
2019-03-09T08:41:54.253Z,1003.08
2019-03-09T08:42:54.258Z,1003.03
2019-03-09T08:43:54.189Z,1002.89
2019-03-09T08:44:54.335Z,1002.84
2019-03-09T08:45:54.143Z,1002.77
2019-03-09T08:46:54.352Z,1002.77
2019-03-09T08:47:54.662Z,1002.77
2019-03-09T08:48:54.166Z,1002.73
2019-03-09T08:49:54.102Z,1002.74
2019-03-09T08:50:54.192Z,1002.80
2019-03-09T08:51:54.095Z,1002.81
2019-03-09T08:52:55.136Z,1002.88
2019-03-09T08:53:54.072Z,1002.98
2019-03-09T08:54:54.649Z,1003.07
2019-03-09T08:55:54.042Z,1003.07
2019-03-09T08:56:54.162Z,1003.13
2019-03-09T08:57:54.037Z,1003.25
2019-03-09T08:58:54.182Z,1003.29
2019-03-09T08:59:54.291Z,1003.24
2019-03-09T09:00:54.047Z,1003.20
2019-03-09T09:01:54.038Z,1003.21
2019-03-09T09:02:54.137Z,1003.30
2019-03-09T09:03:53.996Z,1003.22
2019-03-09T09:04:54.062Z,1003.25
2019-03-09T09:05:53.924Z,1003.32
2019-03-09T09:06:54.092Z,1003.38
2019-03-09T09:07:53.954Z,1003.21
2019-03-09T09:09:55.048Z,1003.21
2019-03-09T09:10:53.907Z,1003.26
2019-03-09T09:11:53.859Z,1003.28
2019-03-09T09:12:53.929Z,1003.26
2019-03-09T09:13:53.885Z,1003.30
2019-03-09T09:14:53.946Z,1003.40
2019-03-09T09:15:53.834Z,1003.27
2019-03-09T09:16:53.849Z,1003.26
2019-03-09T09:17:53.813Z,1003.29
2019-03-09T09:18:54.000Z,1003.30
2019-03-09T09:19:53.789Z,1003.32
2019-03-09T09:20:53.872Z,1003.33
2019-03-09T09:21:53.764Z,1003.39
2019-03-09T09:22:53.786Z,1003.29
2019-03-09T09:23:53.751Z,1003.27
2019-03-09T09:24:53.795Z,1003.12
2019-03-09T09:25:53.707Z,1003.00
2019-03-09T09:26:53.812Z,1003.14
2019-03-09T09:27:53.687Z,1002.97
2019-03-09T09:28:53.857Z,1002.96
2019-03-09T09:29:53.658Z,1003.03
2019-03-09T09:30:53.748Z,1003.03
2019-03-09T09:31:53.658Z,1002.89
2019-03-09T09:32:53.753Z,1003.04
2019-03-09T09:33:53.656Z,1002.91
2019-03-09T09:34:53.689Z,1002.94
2019-03-09T09:35:53.671Z,1002.81
2019-03-09T09:36:53.685Z,1002.95
2019-03-09T09:37:53.586Z,1002.87
2019-03-09T09:38:53.595Z,1002.71
2019-03-09T09:39:53.590Z,1002.88
2019-03-09T09:40:53.608Z,1002.90
2019-03-09T09:41:53.527Z,1002.87
2019-03-09T09:42:53.627Z,1002.90
2019-03-09T09:43:53.508Z,1003.03
2019-03-09T09:44:53.553Z,1003.04
2019-03-09T09:45:53.480Z,1003.04
2019-03-09T09:46:53.546Z,1002.92
2019-03-09T09:47:53.457Z,1002.91
2019-03-09T09:48:53.550Z,1003.04
2019-03-09T09:49:53.458Z,1002.87
2019-03-09T09:50:53.465Z,1002.82
2019-03-09T09:51:53.416Z,1002.91
2019-03-09T09:52:53.484Z,1002.79
2019-03-09T09:53:53.395Z,1002.88
2019-03-09T09:54:53.522Z,1002.83
2019-03-09T09:55:53.407Z,1002.79
2019-03-09T09:56:53.402Z,1002.81
2019-03-09T09:57:53.349Z,1002.82
2019-03-09T09:58:53.480Z,1002.97
2019-03-09T09:59:53.325Z,1002.91
2019-03-09T10:00:53.463Z,1002.90
2019-03-09T10:01:53.305Z,1002.84
2019-03-09T10:02:53.344Z,1002.90
2019-03-09T10:03:53.290Z,1002.97
2019-03-09T10:04:53.361Z,1002.86
2019-03-09T10:05:53.338Z,1002.89
2019-03-09T10:06:53.388Z,1002.89
2019-03-09T10:07:53.273Z,1002.97
2019-03-09T10:08:53.285Z,1002.97
2019-03-09T10:09:53.227Z,1003.07
2019-03-09T10:10:53.345Z,1002.98
2019-03-09T10:11:53.195Z,1002.98
2019-03-09T10:12:55.649Z,1002.92
2019-03-09T10:13:53.173Z,1002.98
2019-03-09T10:14:53.233Z,1002.97
2019-03-09T10:15:53.371Z,1002.98
2019-03-09T10:16:53.236Z,1002.96
2019-03-09T10:17:53.124Z,1002.91
2019-03-09T10:18:53.159Z,1002.86
2019-03-09T10:19:53.107Z,1002.91
2019-03-09T10:20:53.186Z,1002.86
2019-03-09T10:21:53.096Z,1002.72
2019-03-09T10:23:03.089Z,1002.80
2019-03-09T10:23:54.069Z,1002.75
2019-03-09T10:24:53.103Z,1002.77
2019-03-09T10:25:53.089Z,1002.77
2019-03-09T10:26:53.109Z,1002.78
2019-03-09T10:27:53.027Z,1002.69
2019-03-09T10:28:53.112Z,1002.82
2019-03-09T10:29:53.001Z,1002.65
2019-03-09T10:30:53.051Z,1002.69
2019-03-09T10:31:52.970Z,1002.71
2019-03-09T10:32:53.038Z,1002.74
2019-03-09T10:33:52.952Z,1002.72
2019-03-09T10:34:53.063Z,1002.68
2019-03-09T10:35:52.963Z,1002.77
2019-03-09T10:36:52.990Z,1002.76
2019-03-09T10:37:52.904Z,1002.70
2019-03-09T10:38:52.980Z,1002.66
2019-03-09T10:39:52.923Z,1002.64
2019-03-09T10:40:53.000Z,1002.64
2019-03-09T10:41:52.891Z,1002.63
2019-03-09T10:42:53.016Z,1002.69
2019-03-09T10:43:52.953Z,1002.73
2019-03-09T10:44:53.104Z,1002.62
2019-03-09T10:45:52.828Z,1002.65
2019-03-09T10:46:53.125Z,1002.64
2019-03-09T10:47:52.801Z,1002.76
2019-03-09T10:48:52.837Z,1002.84
2019-03-09T10:49:53.163Z,1002.69
2019-03-09T10:50:52.866Z,1002.61
2019-03-09T10:51:52.790Z,1002.56
2019-03-09T10:52:52.767Z,1002.45
2019-03-09T10:53:52.726Z,1002.34
2019-03-09T10:54:52.895Z,1002.51
2019-03-09T10:55:52.780Z,1002.59
2019-03-09T10:56:53.416Z,1002.29
2019-03-09T10:57:52.693Z,1002.32
2019-03-09T10:58:52.707Z,1002.30
2019-03-09T10:59:52.666Z,1002.51
2019-03-09T11:00:52.719Z,1002.36
2019-03-09T11:01:52.650Z,1002.30
2019-03-09T11:02:52.791Z,1002.25
2019-03-09T11:03:52.620Z,1002.28
2019-03-09T11:04:52.658Z,1002.26
2019-03-09T11:05:52.598Z,1002.22
2019-03-09T11:06:52.659Z,1002.28
2019-03-09T11:07:52.597Z,1002.25
2019-03-09T11:08:52.846Z,1002.26
2019-03-09T11:09:52.550Z,1002.23
2019-03-09T11:10:52.595Z,1002.16
2019-03-09T11:11:52.529Z,1002.24
2019-03-09T11:12:52.646Z,1002.15
2019-03-09T11:13:52.538Z,1001.89
2019-03-09T11:14:52.612Z,1001.90
2019-03-09T11:15:52.486Z,1001.91
2019-03-09T11:16:52.523Z,1001.74
2019-03-09T11:17:52.499Z,1001.89
2019-03-09T11:18:52.546Z,1001.89
2019-03-09T11:19:52.447Z,1001.94
2019-03-09T11:20:52.558Z,1001.85
2019-03-09T11:21:52.418Z,1001.98
2019-03-09T11:22:52.463Z,1001.90
2019-03-09T11:23:52.534Z,1001.95
2019-03-09T11:25:02.887Z,1001.93
2019-03-09T11:25:53.702Z,1001.90
2019-03-09T11:26:52.492Z,1001.84
2019-03-09T11:27:52.352Z,1001.88
2019-03-09T11:28:52.843Z,1001.85
2019-03-09T11:29:52.331Z,1001.80
2019-03-09T11:30:52.415Z,1001.72
2019-03-09T11:31:52.314Z,1001.69
2019-03-09T11:32:52.441Z,1001.75
2019-03-09T11:33:52.313Z,1001.71
2019-03-09T11:34:54.086Z,1001.57
2019-03-09T11:35:52.283Z,1001.63
2019-03-09T11:36:53.015Z,1001.57
2019-03-09T11:37:52.240Z,1001.44
2019-03-09T11:38:52.301Z,1001.59
2019-03-09T11:39:52.223Z,1001.69
2019-03-09T11:40:57.349Z,1001.62
2019-03-09T11:41:53.220Z,1001.78
2019-03-09T11:42:52.295Z,1001.88
2019-03-09T11:43:52.211Z,1001.86
2019-03-09T11:44:52.207Z,1002.03
2019-03-09T11:45:52.157Z,1002.07
2019-03-09T11:46:52.215Z,1002.04
2019-03-09T11:47:52.148Z,1002.18
2019-03-09T11:48:52.268Z,1002.26
2019-03-09T11:49:52.137Z,1002.27
2019-03-09T11:51:53.238Z,1002.30
2019-03-09T11:52:52.167Z,1002.27
2019-03-09T11:53:52.104Z,1002.21
2019-03-09T11:54:52.181Z,1002.30
2019-03-09T11:55:52.040Z,1002.27
2019-03-09T11:56:52.088Z,1002.22
2019-03-09T11:57:52.052Z,1002.23
2019-03-09T11:58:52.134Z,1002.08
2019-03-09T11:59:52.045Z,1002.06
2019-03-09T12:00:52.110Z,1002.13
2019-03-09T12:01:51.972Z,1002.07
2019-03-09T12:02:52.021Z,1002.08
2019-03-09T12:03:52.003Z,1001.91
2019-03-09T12:04:52.081Z,1002.03
2019-03-09T12:05:51.930Z,1001.90
2019-03-09T12:06:51.944Z,1002.02
2019-03-09T12:07:51.943Z,1001.85
2019-03-09T12:08:51.971Z,1001.89
2019-03-09T12:09:51.919Z,1001.94
2019-03-09T12:10:51.979Z,1001.89
2019-03-09T12:11:51.865Z,1001.93
2019-03-09T12:12:51.997Z,1001.86
2019-03-09T12:13:51.844Z,1001.70
2019-03-09T12:14:51.938Z,1001.80
2019-03-09T12:15:51.818Z,1001.83
2019-03-09T12:16:51.927Z,1001.79
2019-03-09T12:17:51.806Z,1001.82
2019-03-09T12:18:51.826Z,1001.72
2019-03-09T12:19:51.817Z,1001.79
2019-03-09T12:20:51.846Z,1001.85
2019-03-09T12:21:51.766Z,1001.71
2019-03-09T12:23:52.870Z,1001.65
2019-03-09T12:25:52.884Z,1001.59
2019-03-09T12:26:51.783Z,1001.65
2019-03-09T12:27:51.690Z,1001.60